首页
METAR-TAF:

METAR-TAF

机场 :

桂林, 中华人民共和国

桂林兩江國際機場

纬度: 25-20N, 经度: 110-18E, 海拔: 166米

当前天气观测

该预报发布于22分钟前的22:00 UTC
风速2节,风向多变
温度 17°C
湿度 94%
气压 1014 hPa
能見度: 3000
少量云层高于1000英尺
散云层高于2300英尺
阴天层高于3600英尺
轻雾

METAR: ZGKL 252200Z VRB01MPS 3000 BR FEW010 SCT023 OVC036 17/16 Q1014 NOSIG

时间: 06:22 (22:22 UTC)

预报

该预报发布于7小时和18分钟前的15:04 UTC
预报有效从25日的 18点(UTC)到 26日的 18点(UTC)
风速2节,风向多变
能見度: 2500
散云层高于3000英尺
阴天层高于5000英尺
轻雾
短暂存在
从 25日的 18点(UTC)到 25日的 24点(UTC)
能見度: 1200
小雨

TAF: ZGKL 251504Z 2518/2618 VRB01MPS 2500 BR SCT030 OVC050 TX23/2608Z TN16/2521Z TEMPO 2518/2524 1200 -RA

超过4000个机场的气象观测和天气预报(METAR&TAF报告)。

可查询的气象台以黄色和红色小点在地图上表示。

将鼠标移到小点上方,可查看气象台名称。

然后点击查看天气观测和预报。

如需切换地图:点击带黑十字的绿色按钮放大地图;点击带横线的绿色按钮缩小地图;或者点击绿色箭头查看邻近地区的地图。


METAR-TAF: